createdAt,value
2023-05-04T00:00:13.866Z,2.72
2023-05-04T00:01:13.355Z,3.32
2023-05-04T00:02:13.644Z,4.12
2023-05-04T00:03:13.817Z,1.84
2023-05-04T00:04:13.453Z,2.12
2023-05-04T00:05:13.586Z,6.40
2023-05-04T00:06:14.136Z,2.24
2023-05-04T00:07:13.167Z,3.64
2023-05-04T00:08:13.043Z,0.52
2023-05-04T00:09:13.366Z,3.44
2023-05-04T00:10:13.325Z,1.28
2023-05-04T00:11:13.353Z,0.68
2023-05-04T00:12:13.372Z,0.88
2023-05-04T00:13:13.517Z,1.44
2023-05-04T00:14:14.090Z,0.36
2023-05-04T00:15:13.946Z,1.28
2023-05-04T00:16:13.090Z,3.20
2023-05-04T00:17:13.155Z,3.72
2023-05-04T00:18:13.260Z,2.64
2023-05-04T00:19:13.335Z,2.28
2023-05-04T00:20:13.248Z,5.72
2023-05-04T00:21:13.320Z,1.80
2023-05-04T00:22:13.758Z,5.56
2023-05-04T00:23:13.990Z,2.48
2023-05-04T00:24:13.115Z,2.80
2023-05-04T00:25:13.206Z,2.80
2023-05-04T00:26:13.415Z,0.20
2023-05-04T00:27:13.470Z,0.24
2023-05-04T00:28:13.776Z,0.17
2023-05-04T00:29:13.710Z,2.12
2023-05-04T00:30:13.862Z,1.08
2023-05-04T00:31:13.912Z,0.24
2023-05-04T00:32:12.948Z,0.32
2023-05-04T00:33:13.408Z,1.36
2023-05-04T00:34:13.791Z,1.72
2023-05-04T00:35:13.898Z,1.56
2023-05-04T00:36:13.458Z,3.08
2023-05-04T00:37:13.503Z,3.28
2023-05-04T00:38:13.406Z,2.64
2023-05-04T00:39:13.940Z,1.32
2023-05-04T00:40:13.230Z,2.56
2023-05-04T00:41:13.247Z,2.92
2023-05-04T00:42:13.225Z,1.24
2023-05-04T00:43:13.537Z,3.60
2023-05-04T00:44:13.653Z,3.32
2023-05-04T00:45:13.610Z,3.60
2023-05-04T00:46:13.680Z,1.16
2023-05-04T00:47:14.422Z,2.80
2023-05-04T00:48:13.569Z,3.96
2023-05-04T00:49:13.605Z,2.88
2023-05-04T00:50:13.207Z,2.04
2023-05-04T00:51:13.650Z,1.00
2023-05-04T00:52:13.526Z,1.64
2023-05-04T00:53:13.584Z,1.40
2023-05-04T00:54:13.899Z,2.76
2023-05-04T00:55:12.851Z,1.92
2023-05-04T00:56:13.951Z,1.96
2023-05-04T00:57:13.253Z,1.76
2023-05-04T00:58:13.289Z,2.64
2023-05-04T00:59:13.146Z,1.12
2023-05-04T01:00:13.276Z,1.64
2023-05-04T01:01:13.838Z,2.28
2023-05-04T01:02:13.754Z,2.32
2023-05-04T01:03:13.971Z,2.28
2023-05-04T01:04:12.894Z,1.88
2023-05-04T01:05:13.160Z,2.56
2023-05-04T01:06:13.046Z,2.20
2023-05-04T01:07:13.495Z,2.56
2023-05-04T01:08:13.375Z,2.04
2023-05-04T01:09:13.270Z,2.00
2023-05-04T01:10:13.587Z,2.68
2023-05-04T01:11:13.924Z,2.60
2023-05-04T01:12:13.001Z,3.64
2023-05-04T01:13:13.308Z,3.32
2023-05-04T01:14:13.296Z,1.96
2023-05-04T01:15:13.600Z,2.32
2023-05-04T01:16:13.793Z,1.16
2023-05-04T01:17:13.883Z,1.00
2023-05-04T01:18:13.059Z,0.12
2023-05-04T01:19:13.728Z,1.00
2023-05-04T01:20:13.753Z,1.80
2023-05-04T01:21:13.835Z,0.68
2023-05-04T01:22:13.069Z,2.12
2023-05-04T01:23:13.650Z,1.68
2023-05-04T01:24:13.716Z,1.32
2023-05-04T01:25:13.819Z,1.28
2023-05-04T01:26:13.765Z,1.32
2023-05-04T01:27:13.937Z,1.44
2023-05-04T01:28:12.927Z,1.28
2023-05-04T01:29:13.714Z,2.52
2023-05-04T01:30:13.944Z,2.20
2023-05-04T01:31:12.944Z,2.16
2023-05-04T01:32:13.049Z,1.68
2023-05-04T01:33:13.549Z,1.76
2023-05-04T01:34:13.643Z,2.28
2023-05-04T01:35:13.768Z,1.96
2023-05-04T01:36:13.833Z,2.00
2023-05-04T01:37:13.461Z,2.60
2023-05-04T01:38:13.371Z,3.28
2023-05-04T01:39:13.409Z,1.36
2023-05-04T01:40:13.228Z,2.28
2023-05-04T01:41:14.129Z,0.76
2023-05-04T01:42:13.325Z,2.56
2023-05-04T01:43:13.549Z,2.16
2023-05-04T01:44:13.526Z,1.56
2023-05-04T01:45:13.590Z,6.68
2023-05-04T01:46:13.890Z,2.00
2023-05-04T01:47:13.446Z,2.68
2023-05-04T01:48:13.697Z,1.16
2023-05-04T01:49:13.698Z,1.52
2023-05-04T01:50:13.603Z,0.00
2023-05-04T01:51:13.995Z,1.96
2023-05-04T01:52:13.356Z,3.08
2023-05-04T01:53:13.871Z,0.16
2023-05-04T01:54:13.092Z,2.16
2023-05-04T01:55:13.374Z,0.56
2023-05-04T01:56:13.421Z,1.48
2023-05-04T01:57:13.615Z,0.04
2023-05-04T01:58:14.203Z,0.32
2023-05-04T01:59:13.240Z,1.92
2023-05-04T02:00:13.611Z,0.76
2023-05-04T02:01:13.032Z,0.68
2023-05-04T02:02:13.349Z,0.56
2023-05-04T02:03:13.371Z,1.12
2023-05-04T02:04:13.493Z,1.16
2023-05-04T02:05:15.134Z,1.44
2023-05-04T02:06:13.165Z,2.76
2023-05-04T02:07:13.452Z,2.48
2023-05-04T02:08:13.692Z,1.60
2023-05-04T02:09:13.332Z,0.96
2023-05-04T02:10:13.446Z,0.84
2023-05-04T02:11:13.775Z,2.80
2023-05-04T02:12:13.519Z,1.88
2023-05-04T02:13:13.380Z,1.60
2023-05-04T02:14:13.457Z,0.12
2023-05-04T02:15:13.838Z,0.76
2023-05-04T02:16:13.286Z,1.48
2023-05-04T02:17:13.703Z,1.28
2023-05-04T02:18:13.670Z,1.96
2023-05-04T02:19:13.243Z,1.60
2023-05-04T02:20:13.949Z,1.60
2023-05-04T02:21:13.049Z,0.56
2023-05-04T02:22:13.337Z,0.60
2023-05-04T02:23:14.114Z,1.60
2023-05-04T02:24:13.561Z,0.84
2023-05-04T02:25:13.766Z,0.92
2023-05-04T02:26:13.370Z,1.84
2023-05-04T02:27:13.824Z,2.12
2023-05-04T02:28:13.780Z,1.36
2023-05-04T02:29:13.888Z,0.24
2023-05-04T02:30:13.770Z,0.40
2023-05-04T02:31:13.329Z,0.00
2023-05-04T02:32:13.373Z,0.00
2023-05-04T02:33:12.827Z,0.00
2023-05-04T02:34:13.474Z,0.00
2023-05-04T02:35:13.896Z,0.00
2023-05-04T02:36:13.198Z,0.00
2023-05-04T02:37:13.514Z,0.00
2023-05-04T02:38:13.558Z,0.00
2023-05-04T02:39:13.577Z,0.00
2023-05-04T02:40:13.749Z,0.24
2023-05-04T02:41:13.291Z,0.28
2023-05-04T02:42:13.350Z,0.12
2023-05-04T02:43:13.578Z,0.36
2023-05-04T02:44:13.224Z,0.00
2023-05-04T02:45:13.608Z,0.00
2023-05-04T02:46:13.957Z,0.16
2023-05-04T02:47:13.111Z,0.16
2023-05-04T02:48:13.379Z,0.28
2023-05-04T02:49:13.478Z,0.24
2023-05-04T02:50:13.415Z,0.28
2023-05-04T02:51:13.233Z,0.84
2023-05-04T02:52:13.869Z,0.32
2023-05-04T02:53:13.958Z,0.00
2023-05-04T02:54:13.148Z,0.28
2023-05-04T02:55:14.167Z,1.28
2023-05-04T02:56:13.440Z,0.08
2023-05-04T02:57:13.355Z,0.36
2023-05-04T02:58:13.029Z,0.16
2023-05-04T02:59:13.360Z,0.00
2023-05-04T03:00:13.410Z,0.08
2023-05-04T03:01:13.342Z,0.00
2023-05-04T03:02:13.902Z,0.08
2023-05-04T03:03:12.923Z,0.00
2023-05-04T03:04:13.222Z,0.00
2023-05-04T03:05:12.756Z,0.00
2023-05-04T03:06:15.156Z,0.00
2023-05-04T03:07:13.226Z,0.00
2023-05-04T03:08:13.838Z,0.00
2023-05-04T03:09:13.737Z,0.00
2023-05-04T03:10:13.705Z,0.12
2023-05-04T03:11:13.568Z,0.20
2023-05-04T03:12:13.645Z,0.00
2023-05-04T03:13:13.311Z,0.32
2023-05-04T03:14:13.562Z,0.04
2023-05-04T03:15:14.186Z,0.04
2023-05-04T03:16:13.388Z,1.20
2023-05-04T03:17:14.013Z,1.04
2023-05-04T03:18:13.134Z,0.16
2023-05-04T03:19:13.841Z,0.20
2023-05-04T03:20:14.128Z,0.24
2023-05-04T03:21:13.120Z,1.00
2023-05-04T03:22:13.211Z,0.84
2023-05-04T03:23:13.318Z,0.88
2023-05-04T03:24:13.520Z,1.12
2023-05-04T03:25:13.757Z,0.16
2023-05-04T03:26:13.842Z,0.76
2023-05-04T03:27:13.853Z,1.76
2023-05-04T03:28:14.123Z,0.72
2023-05-04T03:29:13.344Z,0.64
2023-05-04T03:30:13.133Z,0.56
2023-05-04T03:31:13.716Z,1.16
2023-05-04T03:32:13.802Z,0.96
2023-05-04T03:33:12.940Z,0.84
2023-05-04T03:34:13.843Z,1.56
2023-05-04T03:35:13.946Z,1.44
2023-05-04T03:36:12.824Z,1.44
2023-05-04T03:37:12.775Z,0.76
2023-05-04T03:38:13.486Z,0.40
2023-05-04T03:39:13.484Z,1.96
2023-05-04T03:40:13.482Z,1.56
2023-05-04T03:41:13.652Z,1.16
2023-05-04T03:42:14.974Z,0.88
2023-05-04T03:43:13.204Z,1.32
2023-05-04T03:44:13.723Z,1.32
2023-05-04T03:45:13.245Z,1.16
2023-05-04T03:46:13.810Z,2.40
2023-05-04T03:47:13.752Z,2.72
2023-05-04T03:48:13.667Z,0.48
2023-05-04T03:49:14.051Z,1.08
2023-05-04T03:50:13.297Z,0.40
2023-05-04T03:51:14.782Z,0.88
2023-05-04T03:52:13.047Z,1.56
2023-05-04T03:53:13.212Z,0.36
2023-05-04T03:54:13.284Z,1.68
2023-05-04T03:55:13.453Z,1.28
2023-05-04T03:56:13.696Z,1.60
2023-05-04T03:57:13.856Z,0.92
2023-05-04T03:58:13.789Z,0.16
2023-05-04T03:59:13.969Z,1.60
2023-05-04T04:00:13.067Z,1.60
2023-05-04T04:01:13.231Z,1.04
2023-05-04T04:02:13.412Z,0.52
2023-05-04T04:03:13.890Z,1.12
2023-05-04T04:04:13.055Z,0.96
2023-05-04T04:05:13.610Z,0.92
2023-05-04T04:06:13.752Z,0.52
2023-05-04T04:07:13.673Z,2.76
2023-05-04T04:08:13.677Z,1.12
2023-05-04T04:09:13.077Z,2.16
2023-05-04T04:10:13.218Z,0.88
2023-05-04T04:11:13.408Z,1.96
2023-05-04T04:12:13.705Z,1.75
2023-05-04T04:13:13.712Z,2.28
2023-05-04T04:14:13.725Z,4.08
2023-05-04T04:15:13.806Z,4.04
2023-05-04T04:16:14.125Z,4.20
2023-05-04T04:17:13.351Z,0.99
2023-05-04T04:18:13.449Z,3.48
2023-05-04T04:19:13.817Z,2.76
2023-05-04T04:20:13.669Z,0.00
2023-05-04T04:21:13.722Z,1.60
2023-05-04T04:22:14.111Z,3.24
2023-05-04T04:23:13.244Z,4.48
2023-05-04T04:24:12.974Z,1.64
2023-05-04T04:25:13.442Z,1.40
2023-05-04T04:26:13.467Z,2.16
2023-05-04T04:27:13.015Z,1.24
2023-05-04T04:29:13.901Z,5.44
2023-05-04T04:30:13.181Z,3.72
2023-05-04T04:31:13.187Z,2.92
2023-05-04T04:32:13.101Z,2.28
2023-05-04T04:33:13.137Z,1.84
2023-05-04T04:34:13.241Z,1.88
2023-05-04T04:35:14.043Z,2.48
2023-05-04T04:36:12.953Z,0.72
2023-05-04T04:37:13.178Z,1.08
2023-05-04T04:38:13.681Z,2.44
2023-05-04T04:39:14.114Z,2.60
2023-05-04T04:40:13.390Z,5.88
2023-05-04T04:41:12.859Z,5.68
2023-05-04T04:42:13.594Z,3.36
2023-05-04T04:43:13.619Z,3.92
2023-05-04T04:44:13.656Z,4.00
2023-05-04T04:45:13.873Z,2.76
2023-05-04T04:46:13.172Z,0.88
2023-05-04T04:47:13.196Z,5.80
2023-05-04T04:48:14.083Z,3.52
2023-05-04T04:49:13.212Z,4.28
2023-05-04T04:50:13.390Z,1.24
2023-05-04T04:51:13.756Z,1.20
2023-05-04T04:52:13.273Z,1.36
2023-05-04T04:53:13.468Z,1.60
2023-05-04T04:54:13.413Z,4.04
2023-05-04T04:55:13.708Z,5.52
2023-05-04T04:56:13.165Z,3.52
2023-05-04T04:57:13.194Z,2.72
2023-05-04T04:58:13.177Z,5.12
2023-05-04T04:59:13.220Z,2.12
2023-05-04T05:00:13.509Z,1.68
2023-05-04T05:03:13.582Z,6.96
2023-05-04T05:04:14.070Z,2.44
2023-05-04T05:05:13.800Z,4.08
2023-05-04T05:06:13.311Z,3.26
2023-05-04T05:07:13.553Z,0.96
2023-05-04T05:08:13.535Z,2.44
2023-05-04T05:09:13.454Z,2.56
2023-05-04T05:10:13.767Z,4.72
2023-05-04T05:11:14.017Z,0.16
2023-05-04T05:12:18.038Z,1.08
2023-05-04T05:13:18.155Z,3.64
2023-05-04T05:14:13.463Z,6.96
2023-05-04T05:15:13.723Z,2.92
2023-05-04T05:16:13.767Z,4.24
2023-05-04T05:17:13.413Z,7.60
2023-05-04T05:18:13.294Z,3.20
2023-05-04T05:19:13.184Z,5.80
2023-05-04T05:20:13.969Z,6.72
2023-05-04T05:21:13.260Z,5.44
2023-05-04T05:22:13.593Z,3.88
2023-05-04T05:23:13.944Z,2.28
2023-05-04T05:24:13.209Z,4.48
2023-05-04T05:25:13.549Z,1.04
2023-05-04T05:26:13.506Z,7.24
2023-05-04T05:27:13.697Z,4.80
2023-05-04T05:28:13.114Z,8.56
2023-05-04T05:29:13.093Z,12.72
2023-05-04T05:30:13.227Z,6.60
2023-05-04T05:31:13.286Z,7.00
2023-05-04T05:32:13.335Z,4.28
2023-05-04T05:33:13.449Z,5.72
2023-05-04T05:34:13.286Z,6.68
2023-05-04T05:35:13.948Z,10.80
2023-05-04T05:36:13.088Z,10.16
2023-05-04T05:37:13.366Z,7.56
2023-05-04T05:38:13.173Z,6.20
2023-05-04T05:39:13.108Z,6.68
2023-05-04T05:40:13.085Z,7.00
2023-05-04T05:41:13.209Z,7.00
2023-05-04T05:42:13.860Z,16.32
2023-05-04T05:43:14.059Z,3.52
2023-05-04T05:44:13.262Z,7.72
2023-05-04T05:45:13.114Z,9.80
2023-05-04T05:46:13.220Z,10.64
2023-05-04T05:47:13.668Z,6.64
2023-05-04T05:48:13.750Z,9.96
2023-05-04T05:49:13.562Z,6.68
2023-05-04T05:50:13.521Z,7.28
2023-05-04T05:51:13.444Z,13.36
2023-05-04T05:52:14.037Z,10.28
2023-05-04T05:53:13.376Z,11.36
2023-05-04T05:54:13.621Z,5.56
2023-05-04T05:55:14.817Z,4.04
2023-05-04T05:56:14.052Z,5.36
2023-05-04T05:57:13.458Z,8.80
2023-05-04T05:58:13.726Z,3.04
2023-05-04T05:59:14.376Z,3.44
2023-05-04T06:00:13.664Z,6.40
2023-05-04T06:01:13.474Z,5.52
2023-05-04T06:02:15.011Z,3.60
2023-05-04T06:03:13.222Z,5.88
2023-05-04T06:04:14.308Z,10.80
2023-05-04T06:05:14.344Z,4.60
2023-05-04T06:06:13.369Z,11.52
2023-05-04T06:07:14.048Z,10.72
2023-05-04T06:08:13.319Z,12.12
2023-05-04T06:09:13.513Z,6.48
2023-05-04T06:10:13.125Z,9.12
2023-05-04T06:11:13.000Z,12.28
2023-05-04T06:12:13.219Z,9.08
2023-05-04T06:13:13.694Z,10.84
2023-05-04T06:14:13.777Z,10.72
2023-05-04T06:15:14.089Z,13.40
2023-05-04T06:16:13.040Z,9.80
2023-05-04T06:17:12.940Z,12.36
2023-05-04T06:18:13.548Z,13.36
2023-05-04T06:19:13.777Z,7.52
2023-05-04T06:20:13.863Z,7.96
2023-05-04T06:21:13.507Z,2.44
2023-05-04T06:22:13.527Z,5.32
2023-05-04T06:23:13.654Z,4.60
2023-05-04T06:24:13.752Z,2.64
2023-05-04T06:25:13.453Z,5.32
2023-05-04T06:26:13.324Z,5.84
2023-05-04T06:27:13.140Z,5.32
2023-05-04T06:28:13.282Z,9.48
2023-05-04T06:29:14.041Z,4.84
2023-05-04T06:30:13.231Z,3.16
2023-05-04T06:31:13.679Z,10.88
2023-05-04T06:32:12.894Z,7.28
2023-05-04T06:33:13.327Z,11.12
2023-05-04T06:34:13.650Z,3.44
2023-05-04T06:35:13.202Z,7.24
2023-05-04T06:36:13.312Z,15.88
2023-05-04T06:37:14.849Z,17.24
2023-05-04T06:38:13.070Z,20.00
2023-05-04T06:39:13.928Z,16.40
2023-05-04T06:40:13.536Z,7.84
2023-05-04T06:41:13.747Z,19.64
2023-05-04T06:42:12.956Z,18.16
2023-05-04T06:43:13.113Z,5.48
2023-05-04T06:44:13.270Z,13.64
2023-05-04T06:45:13.647Z,7.68
2023-05-04T06:46:13.775Z,11.56
2023-05-04T06:47:13.808Z,2.64
2023-05-04T06:48:13.762Z,8.80
2023-05-04T06:49:12.770Z,10.56
2023-05-04T06:50:13.297Z,14.72
2023-05-04T06:51:13.468Z,12.56
2023-05-04T06:52:13.380Z,10.36
2023-05-04T06:53:13.750Z,4.24
2023-05-04T06:54:13.666Z,12.76
2023-05-04T06:55:13.966Z,14.32
2023-05-04T06:56:13.098Z,12.76
2023-05-04T06:57:13.560Z,7.68
2023-05-04T06:58:13.468Z,7.72
2023-05-04T06:59:13.413Z,9.80
2023-05-04T07:00:13.501Z,13.06
2023-05-04T07:01:14.888Z,10.24
2023-05-04T07:02:13.434Z,10.68
2023-05-04T07:03:13.828Z,9.88
2023-05-04T07:04:13.043Z,6.72
2023-05-04T07:05:13.294Z,6.32
2023-05-04T07:06:13.240Z,3.00
2023-05-04T07:07:13.630Z,0.84
2023-05-04T07:08:13.739Z,5.20
2023-05-04T07:09:13.690Z,5.68
2023-05-04T07:10:13.837Z,0.56
2023-05-04T07:11:14.071Z,9.08
2023-05-04T07:12:13.114Z,2.68
2023-05-04T07:13:13.292Z,10.56
2023-05-04T07:14:13.220Z,8.64
2023-05-04T07:15:13.059Z,12.20
2023-05-04T07:16:13.631Z,13.00
2023-05-04T07:17:13.639Z,17.84
2023-05-04T07:18:13.862Z,12.64
2023-05-04T07:19:12.855Z,0.68
2023-05-04T07:20:13.057Z,3.08
2023-05-04T07:21:26.986Z,0.64
2023-05-04T07:22:13.140Z,0.00
2023-05-04T07:23:13.366Z,3.72
2023-05-04T07:24:13.653Z,3.60
2023-05-04T07:25:13.673Z,4.20
2023-05-04T07:26:13.806Z,12.48
2023-05-04T07:27:14.585Z,11.04
2023-05-04T07:28:13.817Z,5.16
2023-05-04T07:29:14.224Z,0.00
2023-05-04T07:30:13.196Z,1.32
2023-05-04T07:31:14.056Z,0.64
2023-05-04T07:32:13.565Z,4.08
2023-05-04T07:33:13.692Z,4.52
2023-05-04T07:34:13.817Z,3.44
2023-05-04T07:35:13.929Z,2.60
2023-05-04T07:36:12.967Z,4.00
2023-05-04T07:37:12.954Z,0.00
2023-05-04T07:38:12.888Z,1.24
2023-05-04T07:39:13.585Z,3.92
2023-05-04T07:40:13.537Z,0.72
2023-05-04T07:41:13.724Z,1.76
2023-05-04T07:42:13.779Z,3.64
2023-05-04T07:43:14.084Z,6.40
2023-05-04T07:44:13.141Z,1.76
2023-05-04T07:45:13.064Z,3.76
2023-05-04T07:46:13.216Z,5.52
2023-05-04T07:47:13.655Z,0.40
2023-05-04T07:48:13.853Z,0.68
2023-05-04T07:49:13.781Z,2.12
2023-05-04T07:50:13.614Z,4.88
2023-05-04T07:51:13.704Z,5.88
2023-05-04T07:52:14.165Z,10.88
2023-05-04T07:53:13.374Z,3.24
2023-05-04T07:54:19.720Z,2.12
2023-05-04T07:55:13.757Z,1.88
2023-05-04T07:56:13.885Z,3.72
2023-05-04T07:57:13.511Z,1.96
2023-05-04T07:58:13.095Z,1.28
2023-05-04T07:59:13.187Z,5.68
2023-05-04T08:00:13.656Z,15.48
2023-05-04T08:01:13.031Z,7.44
2023-05-04T08:02:13.101Z,0.68
2023-05-04T08:03:13.299Z,1.00
2023-05-04T08:04:13.457Z,0.48
2023-05-04T08:05:13.723Z,0.64
2023-05-04T08:06:13.842Z,0.00
2023-05-04T08:07:14.127Z,0.00
2023-05-04T08:08:13.022Z,1.72
2023-05-04T08:09:13.157Z,3.40
2023-05-04T08:10:13.123Z,0.08
2023-05-04T08:11:20.112Z,0.92
2023-05-04T08:12:12.941Z,1.32
2023-05-04T08:13:13.295Z,0.80
2023-05-04T08:14:13.361Z,0.56
2023-05-04T08:15:13.762Z,0.96
2023-05-04T08:16:13.645Z,2.60
2023-05-04T08:17:13.834Z,1.00
2023-05-04T08:18:13.017Z,0.56
2023-05-04T08:19:13.527Z,0.80
2023-05-04T08:20:13.554Z,4.68
2023-05-04T08:21:13.574Z,0.44
2023-05-04T08:22:13.797Z,2.04
2023-05-04T08:23:13.809Z,5.12
2023-05-04T08:24:13.980Z,1.40
2023-05-04T08:25:12.998Z,3.16
2023-05-04T08:26:13.588Z,4.16
2023-05-04T08:27:13.492Z,7.08
2023-05-04T08:28:13.471Z,4.76
2023-05-04T08:29:13.602Z,3.44
2023-05-04T08:30:13.223Z,8.84
2023-05-04T08:31:13.748Z,1.12
2023-05-04T08:32:13.308Z,5.24
2023-05-04T08:33:13.447Z,5.64
2023-05-04T08:34:13.624Z,3.96
2023-05-04T08:35:13.814Z,6.84
2023-05-04T08:36:13.409Z,6.92
2023-05-04T08:37:13.930Z,5.40
2023-05-04T08:38:13.125Z,2.80
2023-05-04T08:39:13.641Z,4.52
2023-05-04T08:40:13.225Z,1.36
2023-05-04T08:41:13.345Z,3.16
2023-05-04T08:42:13.247Z,0.80
2023-05-04T08:43:13.478Z,2.72
2023-05-04T08:44:13.804Z,8.56
2023-05-04T08:45:13.829Z,8.72
2023-05-04T08:46:14.056Z,2.64
2023-05-04T08:47:14.195Z,13.12
2023-05-04T08:48:13.597Z,12.48
2023-05-04T08:49:13.834Z,24.72
2023-05-04T08:50:13.701Z,7.82
2023-05-04T08:51:13.864Z,14.60
2023-05-04T08:52:13.917Z,7.56
2023-05-04T08:53:13.010Z,0.00
2023-05-04T08:54:13.769Z,1.32
2023-05-04T08:55:13.444Z,9.08
2023-05-04T08:56:13.611Z,5.32
2023-05-04T08:57:12.789Z,0.00
2023-05-04T08:58:13.789Z,1.24
2023-05-04T08:59:13.781Z,3.00
2023-05-04T09:00:13.815Z,3.20
2023-05-04T09:01:13.945Z,5.24
2023-05-04T09:02:13.046Z,4.12
2023-05-04T09:03:13.055Z,5.28
2023-05-04T09:04:13.748Z,5.84
2023-05-04T09:05:13.153Z,4.00
2023-05-04T09:06:13.256Z,2.60
2023-05-04T09:07:13.353Z,6.60
2023-05-04T09:08:13.276Z,4.32
2023-05-04T09:09:13.535Z,10.36
2023-05-04T09:10:13.651Z,8.00
2023-05-04T09:11:13.842Z,2.96
2023-05-04T09:12:12.938Z,11.60
2023-05-04T09:13:12.869Z,5.20
2023-05-04T09:14:18.295Z,3.24
2023-05-04T09:15:13.276Z,3.40
2023-05-04T09:16:14.751Z,3.08
2023-05-04T09:17:13.132Z,2.28
2023-05-04T09:18:13.412Z,0.64
2023-05-04T09:19:13.774Z,1.44
2023-05-04T09:20:13.915Z,1.44
2023-05-04T09:21:13.008Z,1.44
2023-05-04T09:22:13.814Z,0.08
2023-05-04T09:23:13.531Z,2.12
2023-05-04T09:24:13.713Z,4.72
2023-05-04T09:25:13.783Z,3.16
2023-05-04T09:26:13.798Z,5.68
2023-05-04T09:27:13.822Z,2.72
2023-05-04T09:28:13.921Z,5.40
2023-05-04T09:29:12.902Z,2.08
2023-05-04T09:30:13.375Z,4.04
2023-05-04T09:31:13.641Z,1.04
2023-05-04T09:32:13.841Z,4.24
2023-05-04T09:33:13.470Z,4.08
2023-05-04T09:34:13.278Z,3.56
2023-05-04T09:35:25.307Z,8.00
2023-05-04T09:36:13.282Z,1.88
2023-05-04T09:37:13.216Z,0.08
2023-05-04T09:38:13.000Z,7.08
2023-05-04T09:39:12.969Z,5.64
2023-05-04T09:40:13.482Z,6.72
2023-05-04T09:41:13.631Z,4.24
2023-05-04T09:42:13.699Z,9.48
2023-05-04T09:43:13.946Z,5.08
2023-05-04T09:44:13.059Z,1.96
2023-05-04T09:45:12.996Z,0.64
2023-05-04T09:46:13.130Z,0.24
2023-05-04T09:47:13.361Z,1.24
2023-05-04T09:48:13.285Z,1.68
2023-05-04T09:49:13.240Z,1.32
2023-05-04T09:50:13.528Z,2.08
2023-05-04T09:51:13.958Z,2.12
2023-05-04T09:52:13.016Z,1.20
2023-05-04T09:53:13.334Z,4.72
2023-05-04T09:54:13.235Z,4.40
2023-05-04T09:55:13.254Z,1.60
2023-05-04T09:56:13.384Z,1.00
2023-05-04T09:57:13.414Z,0.60
2023-05-04T09:58:13.742Z,2.12
2023-05-04T09:59:13.780Z,1.92
2023-05-04T10:00:13.840Z,1.04
2023-05-04T10:01:18.749Z,3.88
2023-05-04T10:02:22.659Z,2.56
2023-05-04T10:03:13.413Z,1.08
2023-05-04T10:04:13.383Z,2.04
2023-05-04T10:05:13.576Z,2.00
2023-05-04T10:06:13.651Z,3.28
2023-05-04T10:07:51.548Z,2.16
2023-05-04T10:08:13.922Z,0.72
2023-05-04T10:09:13.304Z,1.64
2023-05-04T10:10:13.408Z,2.68
2023-05-04T10:11:13.514Z,8.20
2023-05-04T10:12:13.540Z,1.36
2023-05-04T10:13:13.576Z,0.92
2023-05-04T10:14:13.470Z,0.48
2023-05-04T10:17:13.910Z,10.92
2023-05-04T10:18:13.393Z,6.64
2023-05-04T10:19:13.212Z,3.36
2023-05-04T10:20:13.940Z,4.36
2023-05-04T10:21:25.810Z,11.22
2023-05-04T10:22:13.807Z,6.24
2023-05-04T10:23:14.137Z,1.76
2023-05-04T10:24:13.118Z,9.56
2023-05-04T10:25:13.429Z,3.80
2023-05-04T10:26:13.104Z,7.24
2023-05-04T10:27:13.513Z,9.56
2023-05-04T10:28:13.805Z,12.60
2023-05-04T10:29:49.137Z,3.48
2023-05-04T10:30:13.991Z,5.95
2023-05-04T10:31:13.314Z,19.32
2023-05-04T10:32:13.471Z,14.44
2023-05-04T10:33:12.942Z,5.32
2023-05-04T10:34:13.376Z,6.60
2023-05-04T10:35:13.421Z,2.28
2023-05-04T10:36:13.485Z,1.52
2023-05-04T10:37:13.853Z,6.88
2023-05-04T10:38:13.986Z,3.64
2023-05-04T10:39:13.110Z,1.92
2023-05-04T10:40:13.655Z,7.12
2023-05-04T10:41:13.015Z,8.16
2023-05-04T10:42:13.027Z,2.40
2023-05-04T10:43:13.478Z,3.32
2023-05-04T10:44:13.365Z,2.12
2023-05-04T10:45:13.641Z,9.80
2023-05-04T10:46:13.729Z,4.68
2023-05-04T10:47:13.802Z,2.52
2023-05-04T10:48:13.189Z,4.84
2023-05-04T10:49:14.676Z,2.76
2023-05-04T10:50:13.673Z,0.84
2023-05-04T10:51:13.317Z,3.68
2023-05-04T10:52:13.821Z,4.48
2023-05-04T10:53:13.843Z,7.04
2023-05-04T10:54:13.887Z,5.12
2023-05-04T10:55:13.924Z,1.16
2023-05-04T10:56:12.736Z,3.80
2023-05-04T10:57:13.838Z,3.44
2023-05-04T10:58:13.210Z,5.72
2023-05-04T10:59:13.427Z,5.96
2023-05-04T11:00:13.768Z,7.08
2023-05-04T11:01:13.960Z,6.28
2023-05-04T11:02:14.263Z,2.00
2023-05-04T11:03:13.448Z,2.56
2023-05-04T11:04:13.591Z,5.68
2023-05-04T11:05:12.893Z,2.72
2023-05-04T11:06:13.366Z,5.76
2023-05-04T11:07:13.448Z,7.60
2023-05-04T11:08:13.481Z,4.32
2023-05-04T11:09:13.508Z,19.84
2023-05-04T11:10:13.827Z,13.40
2023-05-04T11:11:13.738Z,9.72
2023-05-04T11:12:13.723Z,15.96
2023-05-04T11:13:13.291Z,4.64
2023-05-04T11:14:13.709Z,7.16
2023-05-04T11:15:13.774Z,5.48
2023-05-04T11:16:13.290Z,3.08
2023-05-04T11:17:27.345Z,2.36
2023-05-04T11:18:13.148Z,7.60
2023-05-04T11:19:13.755Z,3.40
2023-05-04T11:20:14.600Z,3.40
2023-05-04T11:21:13.548Z,1.72
2023-05-04T11:22:13.400Z,1.16
2023-05-04T11:23:14.995Z,8.32
2023-05-04T11:24:13.799Z,6.16
2023-05-04T11:25:14.116Z,1.72
2023-05-04T11:26:13.461Z,2.60
2023-05-04T11:27:13.883Z,3.28
2023-05-04T11:28:14.663Z,1.60
2023-05-04T11:29:13.015Z,1.04
2023-05-04T11:30:13.114Z,0.48
2023-05-04T11:31:13.448Z,2.04
2023-05-04T11:32:13.696Z,3.12
2023-05-04T11:33:14.012Z,2.68
2023-05-04T11:34:13.679Z,2.56
2023-05-04T11:35:13.863Z,4.68
2023-05-04T11:36:14.066Z,5.48
2023-05-04T11:37:14.225Z,0.52
2023-05-04T11:38:13.334Z,0.68
2023-05-04T11:39:13.520Z,1.80
2023-05-04T11:40:13.742Z,1.32
2023-05-04T11:41:13.723Z,2.56
2023-05-04T11:42:14.424Z,6.68
2023-05-04T11:43:13.544Z,7.32
2023-05-04T11:44:13.978Z,2.96
2023-05-04T11:45:13.639Z,20.28
2023-05-04T11:46:13.724Z,11.08
2023-05-04T11:47:15.537Z,12.52
2023-05-04T11:48:13.452Z,4.48
2023-05-04T11:49:13.873Z,12.88
2023-05-04T11:50:13.908Z,7.60
2023-05-04T11:51:13.029Z,5.12
2023-05-04T11:52:13.247Z,4.00
2023-05-04T11:53:13.224Z,14.00
2023-05-04T11:54:13.133Z,3.80
2023-05-04T11:55:13.439Z,8.80
2023-05-04T11:56:13.763Z,21.24
2023-05-04T11:58:13.293Z,21.84
2023-05-04T11:59:13.652Z,15.32
2023-05-04T12:00:13.995Z,14.32
2023-05-04T12:01:13.025Z,11.12
2023-05-04T12:02:13.123Z,3.56
2023-05-04T12:03:13.744Z,5.04
2023-05-04T12:04:13.932Z,21.72
2023-05-04T12:05:12.967Z,11.00
2023-05-04T12:06:13.808Z,14.16
2023-05-04T12:07:13.446Z,22.68
2023-05-04T12:08:13.516Z,3.16
2023-05-04T12:09:12.840Z,8.68
2023-05-04T12:10:13.725Z,5.56
2023-05-04T12:11:14.019Z,3.08
2023-05-04T12:12:13.121Z,6.52
2023-05-04T12:13:13.650Z,5.20
2023-05-04T12:14:13.099Z,4.80
2023-05-04T12:15:14.092Z,3.08
2023-05-04T12:16:13.460Z,10.04
2023-05-04T12:17:13.425Z,5.88
2023-05-04T12:18:13.626Z,5.04
2023-05-04T12:19:13.596Z,11.00
2023-05-04T12:20:13.452Z,11.48
2023-05-04T12:21:13.848Z,26.60
2023-05-04T12:22:13.871Z,7.84
2023-05-04T12:23:15.035Z,12.80
2023-05-04T12:24:13.001Z,14.84
2023-05-04T12:25:13.003Z,17.84
2023-05-04T12:26:19.870Z,9.22
2023-05-04T12:27:13.192Z,18.00
2023-05-04T12:28:13.661Z,11.56
2023-05-04T12:29:13.537Z,10.24
2023-05-04T12:30:13.491Z,29.32
2023-05-04T12:31:15.300Z,43.48
2023-05-04T12:32:13.311Z,27.60
2023-05-04T12:33:13.472Z,13.72
2023-05-04T12:34:13.020Z,3.12
2023-05-04T12:35:13.669Z,8.96
2023-05-04T12:36:13.768Z,17.40
2023-05-04T12:37:13.811Z,10.28
2023-05-04T12:38:13.854Z,7.28
2023-05-04T12:39:14.004Z,19.60
2023-05-04T12:40:27.266Z,14.60
2023-05-04T12:41:13.107Z,27.72
2023-05-04T12:42:13.472Z,27.60
2023-05-04T12:43:13.747Z,28.68
2023-05-04T12:44:13.762Z,18.04
2023-05-04T12:45:13.654Z,31.88
2023-05-04T12:46:13.767Z,31.36
2023-05-04T12:47:13.744Z,20.44
2023-05-04T12:48:13.944Z,24.12
2023-05-04T12:49:13.186Z,27.80
2023-05-04T12:50:13.264Z,32.08
2023-05-04T12:51:13.731Z,18.84
2023-05-04T12:52:13.187Z,33.08
2023-05-04T12:53:13.345Z,28.04
2023-05-04T12:54:13.584Z,21.08
2023-05-04T12:55:13.910Z,9.92
2023-05-04T12:56:13.444Z,5.52
2023-05-04T12:57:13.497Z,6.00
2023-05-04T12:58:13.247Z,12.32
2023-05-04T12:59:13.705Z,13.92
2023-05-04T13:00:14.178Z,21.20
2023-05-04T13:01:14.606Z,23.28
2023-05-04T13:02:13.772Z,29.72
2023-05-04T13:03:13.894Z,26.56
2023-05-04T13:04:12.954Z,21.88
2023-05-04T13:05:13.153Z,28.00
2023-05-04T13:06:13.201Z,18.04
2023-05-04T13:07:13.532Z,22.44
2023-05-04T13:08:13.567Z,19.72
2023-05-04T13:09:13.549Z,10.52
2023-05-04T13:10:13.712Z,20.48
2023-05-04T13:11:13.780Z,44.16
2023-05-04T13:12:13.803Z,28.84
2023-05-04T13:13:13.060Z,15.08
2023-05-04T13:14:13.455Z,21.64
2023-05-04T13:15:13.823Z,31.40
2023-05-04T13:16:13.957Z,42.16
2023-05-04T13:17:13.849Z,21.20
2023-05-04T13:18:13.828Z,32.12
2023-05-04T13:19:14.045Z,26.28
2023-05-04T13:20:13.228Z,46.16